sensor_id;sensor_type;location;lat;lon;timestamp;P1;durP1;ratioP1;P2;durP2;ratioP2
39022;SDS011;25908;51.984;5.928;2023-02-18T00:00:10;61.55;;;28.35;;
39022;SDS011;25908;51.984;5.928;2023-02-18T00:02:37;47.83;;;26.98;;
39022;SDS011;25908;51.984;5.928;2023-02-18T00:05:03;58.67;;;29.50;;
39022;SDS011;25908;51.984;5.928;2023-02-18T00:07:33;54.05;;;29.48;;
39022;SDS011;25908;51.984;5.928;2023-02-18T00:10:03;59.25;;;29.85;;
39022;SDS011;25908;51.984;5.928;2023-02-18T00:12:30;53.08;;;30.15;;
39022;SDS011;25908;51.984;5.928;2023-02-18T00:14:56;55.50;;;28.33;;
39022;SDS011;25908;51.984;5.928;2023-02-18T00:17:22;60.92;;;31.75;;
39022;SDS011;25908;51.984;5.928;2023-02-18T00:19:48;56.75;;;29.13;;
39022;SDS011;25908;51.984;5.928;2023-02-18T00:22:13;60.67;;;29.58;;
39022;SDS011;25908;51.984;5.928;2023-02-18T00:24:39;55.67;;;29.65;;
39022;SDS011;25908;51.984;5.928;2023-02-18T00:27:04;62.22;;;31.15;;
39022;SDS011;25908;51.984;5.928;2023-02-18T00:29:30;62.08;;;31.58;;
39022;SDS011;25908;51.984;5.928;2023-02-18T00:31:56;63.53;;;32.78;;
39022;SDS011;25908;51.984;5.928;2023-02-18T00:34:21;56.97;;;29.88;;
39022;SDS011;25908;51.984;5.928;2023-02-18T00:36:47;61.13;;;30.83;;
39022;SDS011;25908;51.984;5.928;2023-02-18T00:39:12;56.53;;;28.83;;
39022;SDS011;25908;51.984;5.928;2023-02-18T00:41:38;61.08;;;30.75;;
39022;SDS011;25908;51.984;5.928;2023-02-18T00:44:05;59.92;;;31.08;;
39022;SDS011;25908;51.984;5.928;2023-02-18T00:46:31;57.67;;;29.65;;
39022;SDS011;25908;51.984;5.928;2023-02-18T00:48:56;58.80;;;30.30;;
39022;SDS011;25908;51.984;5.928;2023-02-18T00:51:22;53.22;;;29.85;;
39022;SDS011;25908;51.984;5.928;2023-02-18T00:53:49;54.90;;;28.95;;
39022;SDS011;25908;51.984;5.928;2023-02-18T00:56:15;54.58;;;30.30;;
39022;SDS011;25908;51.984;5.928;2023-02-18T00:58:41;61.90;;;30.90;;
39022;SDS011;25908;51.984;5.928;2023-02-18T01:01:07;58.05;;;29.30;;
39022;SDS011;25908;51.984;5.928;2023-02-18T01:03:38;58.58;;;29.30;;
39022;SDS011;25908;51.984;5.928;2023-02-18T01:06:04;53.15;;;28.75;;
39022;SDS011;25908;51.984;5.928;2023-02-18T01:08:30;58.53;;;29.15;;
39022;SDS011;25908;51.984;5.928;2023-02-18T01:10:57;55.38;;;29.23;;
39022;SDS011;25908;51.984;5.928;2023-02-18T01:13:23;53.00;;;28.90;;
39022;SDS011;25908;51.984;5.928;2023-02-18T01:15:49;53.63;;;27.70;;
39022;SDS011;25908;51.984;5.928;2023-02-18T01:18:15;51.50;;;27.65;;
39022;SDS011;25908;51.984;5.928;2023-02-18T01:20:41;47.92;;;26.23;;
39022;SDS011;25908;51.984;5.928;2023-02-18T01:23:07;48.30;;;27.25;;
39022;SDS011;25908;51.984;5.928;2023-02-18T01:25:33;46.83;;;25.50;;
39022;SDS011;25908;51.984;5.928;2023-02-18T01:28:00;45.55;;;24.95;;
39022;SDS011;25908;51.984;5.928;2023-02-18T01:30:27;42.38;;;23.88;;
39022;SDS011;25908;51.984;5.928;2023-02-18T01:32:54;44.80;;;23.98;;
39022;SDS011;25908;51.984;5.928;2023-02-18T01:35:21;39.08;;;24.00;;
39022;SDS011;25908;51.984;5.928;2023-02-18T01:37:47;45.15;;;24.25;;
39022;SDS011;25908;51.984;5.928;2023-02-18T01:40:14;40.55;;;23.58;;
39022;SDS011;25908;51.984;5.928;2023-02-18T01:42:42;41.95;;;24.90;;
39022;SDS011;25908;51.984;5.928;2023-02-18T01:48:26;41.00;;;22.88;;
39022;SDS011;25908;51.984;5.928;2023-02-18T01:51:04;46.72;;;25.45;;
39022;SDS011;25908;51.984;5.928;2023-02-18T01:53:53;45.92;;;23.20;;
39022;SDS011;25908;51.984;5.928;2023-02-18T01:56:27;48.17;;;25.35;;
39022;SDS011;25908;51.984;5.928;2023-02-18T01:58:57;47.13;;;24.42;;
39022;SDS011;25908;51.984;5.928;2023-02-18T02:01:26;48.72;;;25.05;;
39022;SDS011;25908;51.984;5.928;2023-02-18T02:03:52;50.45;;;27.33;;
39022;SDS011;25908;51.984;5.928;2023-02-18T02:06:19;46.33;;;26.42;;
39022;SDS011;25908;51.984;5.928;2023-02-18T02:08:47;48.00;;;26.25;;
39022;SDS011;25908;51.984;5.928;2023-02-18T02:11:27;49.50;;;26.95;;
39022;SDS011;25908;51.984;5.928;2023-02-18T02:17:01;56.28;;;30.13;;
39022;SDS011;25908;51.984;5.928;2023-02-18T02:25:25;58.75;;;33.22;;
39022;SDS011;25908;51.984;5.928;2023-02-18T02:33:45;77.65;;;34.20;;
39022;SDS011;25908;51.984;5.928;2023-02-18T02:39:20;68.35;;;34.33;;
39022;SDS011;25908;51.984;5.928;2023-02-18T02:44:49;69.05;;;36.03;;
39022;SDS011;25908;51.984;5.928;2023-02-18T02:47:40;66.38;;;36.28;;
39022;SDS011;25908;51.984;5.928;2023-02-18T02:52:47;65.50;;;35.53;;
39022;SDS011;25908;51.984;5.928;2023-02-18T02:55:17;71.65;;;37.28;;
39022;SDS011;25908;51.984;5.928;2023-02-18T02:57:44;67.20;;;38.45;;
39022;SDS011;25908;51.984;5.928;2023-02-18T03:00:13;67.97;;;37.70;;
39022;SDS011;25908;51.984;5.928;2023-02-18T03:05:38;70.53;;;39.60;;
39022;SDS011;25908;51.984;5.928;2023-02-18T03:08:24;73.72;;;38.53;;
39022;SDS011;25908;51.984;5.928;2023-02-18T03:11:14;74.53;;;38.35;;
39022;SDS011;25908;51.984;5.928;2023-02-18T03:13:56;71.80;;;39.05;;
39022;SDS011;25908;51.984;5.928;2023-02-18T03:19:56;71.78;;;37.15;;
39022;SDS011;25908;51.984;5.928;2023-02-18T03:22:33;73.68;;;38.38;;
39022;SDS011;25908;51.984;5.928;2023-02-18T03:25:04;75.03;;;39.17;;
39022;SDS011;25908;51.984;5.928;2023-02-18T03:27:31;76.80;;;37.90;;
39022;SDS011;25908;51.984;5.928;2023-02-18T03:30:24;69.78;;;36.30;;
39022;SDS011;25908;51.984;5.928;2023-02-18T03:32:59;72.72;;;36.47;;
39022;SDS011;25908;51.984;5.928;2023-02-18T03:35:30;63.70;;;34.00;;
39022;SDS011;25908;51.984;5.928;2023-02-18T03:37:58;62.00;;;33.25;;
39022;SDS011;25908;51.984;5.928;2023-02-18T03:40:29;64.90;;;34.15;;
39022;SDS011;25908;51.984;5.928;2023-02-18T03:42:56;61.47;;;31.17;;
39022;SDS011;25908;51.984;5.928;2023-02-18T03:45:25;61.72;;;34.22;;
39022;SDS011;25908;51.984;5.928;2023-02-18T03:47:51;55.72;;;29.05;;
39022;SDS011;25908;51.984;5.928;2023-02-18T03:50:17;54.38;;;29.67;;
39022;SDS011;25908;51.984;5.928;2023-02-18T03:52:43;54.70;;;29.95;;
39022;SDS011;25908;51.984;5.928;2023-02-18T03:55:09;46.85;;;26.50;;
39022;SDS011;25908;51.984;5.928;2023-02-18T03:57:35;46.50;;;26.77;;
39022;SDS011;25908;51.984;5.928;2023-02-18T04:00:01;48.13;;;25.38;;
39022;SDS011;25908;51.984;5.928;2023-02-18T04:02:30;37.50;;;21.58;;
39022;SDS011;25908;51.984;5.928;2023-02-18T04:04:55;36.00;;;20.88;;
39022;SDS011;25908;51.984;5.928;2023-02-18T04:07:21;35.42;;;20.50;;
39022;SDS011;25908;51.984;5.928;2023-02-18T04:09:46;34.67;;;20.25;;
39022;SDS011;25908;51.984;5.928;2023-02-18T04:12:12;29.95;;;18.35;;
39022;SDS011;25908;51.984;5.928;2023-02-18T04:14:37;29.23;;;17.98;;
39022;SDS011;25908;51.984;5.928;2023-02-18T04:17:03;30.95;;;18.23;;
39022;SDS011;25908;51.984;5.928;2023-02-18T04:19:29;30.40;;;18.23;;
39022;SDS011;25908;51.984;5.928;2023-02-18T04:21:55;25.50;;;16.88;;
39022;SDS011;25908;51.984;5.928;2023-02-18T04:24:21;28.92;;;17.48;;
39022;SDS011;25908;51.984;5.928;2023-02-18T04:26:46;27.85;;;17.67;;
39022;SDS011;25908;51.984;5.928;2023-02-18T04:29:12;29.70;;;18.17;;
39022;SDS011;25908;51.984;5.928;2023-02-18T04:31:37;28.75;;;17.88;;
39022;SDS011;25908;51.984;5.928;2023-02-18T04:34:03;31.17;;;18.23;;
39022;SDS011;25908;51.984;5.928;2023-02-18T04:36:28;35.05;;;17.40;;
39022;SDS011;25908;51.984;5.928;2023-02-18T04:38:54;27.83;;;17.25;;
39022;SDS011;25908;51.984;5.928;2023-02-18T04:41:19;25.48;;;15.93;;
39022;SDS011;25908;51.984;5.928;2023-02-18T04:43:45;30.15;;;16.98;;
39022;SDS011;25908;51.984;5.928;2023-02-18T04:46:11;26.65;;;15.10;;
39022;SDS011;25908;51.984;5.928;2023-02-18T04:48:36;23.20;;;14.32;;
39022;SDS011;25908;51.984;5.928;2023-02-18T04:51:02;22.23;;;12.98;;
39022;SDS011;25908;51.984;5.928;2023-02-18T04:53:27;20.23;;;12.23;;
39022;SDS011;25908;51.984;5.928;2023-02-18T04:55:53;17.98;;;11.15;;
39022;SDS011;25908;51.984;5.928;2023-02-18T04:58:19;20.25;;;12.60;;
39022;SDS011;25908;51.984;5.928;2023-02-18T05:00:45;18.70;;;11.25;;
39022;SDS011;25908;51.984;5.928;2023-02-18T05:03:11;18.23;;;10.60;;
39022;SDS011;25908;51.984;5.928;2023-02-18T05:05:37;17.90;;;10.45;;
39022;SDS011;25908;51.984;5.928;2023-02-18T05:08:03;17.02;;;10.48;;
39022;SDS011;25908;51.984;5.928;2023-02-18T05:10:28;15.20;;;9.65;;
39022;SDS011;25908;51.984;5.928;2023-02-18T05:12:54;13.75;;;8.88;;
39022;SDS011;25908;51.984;5.928;2023-02-18T05:15:20;13.18;;;7.90;;
39022;SDS011;25908;51.984;5.928;2023-02-18T05:17:45;13.05;;;7.95;;
39022;SDS011;25908;51.984;5.928;2023-02-18T05:20:11;13.07;;;7.95;;
39022;SDS011;25908;51.984;5.928;2023-02-18T05:22:37;13.55;;;8.48;;
39022;SDS011;25908;51.984;5.928;2023-02-18T05:25:10;16.67;;;9.30;;
39022;SDS011;25908;51.984;5.928;2023-02-18T05:27:36;13.45;;;8.45;;
39022;SDS011;25908;51.984;5.928;2023-02-18T05:30:02;14.43;;;8.50;;
39022;SDS011;25908;51.984;5.928;2023-02-18T05:32:28;13.40;;;8.18;;
39022;SDS011;25908;51.984;5.928;2023-02-18T05:34:53;12.95;;;8.43;;
39022;SDS011;25908;51.984;5.928;2023-02-18T05:37:19;12.68;;;8.23;;
39022;SDS011;25908;51.984;5.928;2023-02-18T05:39:45;11.82;;;7.43;;
39022;SDS011;25908;51.984;5.928;2023-02-18T05:42:10;12.48;;;7.65;;
39022;SDS011;25908;51.984;5.928;2023-02-18T05:44:36;10.90;;;7.38;;
39022;SDS011;25908;51.984;5.928;2023-02-18T05:47:03;10.18;;;6.55;;
39022;SDS011;25908;51.984;5.928;2023-02-18T05:49:31;18.77;;;10.02;;
39022;SDS011;25908;51.984;5.928;2023-02-18T05:51:58;23.30;;;10.93;;
39022;SDS011;25908;51.984;5.928;2023-02-18T05:54:24;14.73;;;8.27;;
39022;SDS011;25908;51.984;5.928;2023-02-18T05:56:50;8.82;;;5.45;;
39022;SDS011;25908;51.984;5.928;2023-02-18T05:59:16;8.75;;;5.68;;
39022;SDS011;25908;51.984;5.928;2023-02-18T06:01:42;7.88;;;5.00;;
39022;SDS011;25908;51.984;5.928;2023-02-18T06:04:08;8.82;;;5.47;;
39022;SDS011;25908;51.984;5.928;2023-02-18T06:06:34;8.25;;;5.10;;
39022;SDS011;25908;51.984;5.928;2023-02-18T06:09:00;6.90;;;4.93;;
39022;SDS011;25908;51.984;5.928;2023-02-18T06:11:26;6.78;;;4.80;;
39022;SDS011;25908;51.984;5.928;2023-02-18T06:13:52;6.82;;;4.72;;
39022;SDS011;25908;51.984;5.928;2023-02-18T06:16:17;5.68;;;3.90;;
39022;SDS011;25908;51.984;5.928;2023-02-18T06:18:43;5.32;;;3.33;;
39022;SDS011;25908;51.984;5.928;2023-02-18T06:21:08;5.63;;;3.85;;
39022;SDS011;25908;51.984;5.928;2023-02-18T06:23:34;5.88;;;4.28;;
39022;SDS011;25908;51.984;5.928;2023-02-18T06:26:00;6.78;;;4.93;;
39022;SDS011;25908;51.984;5.928;2023-02-18T06:28:25;8.73;;;5.28;;
39022;SDS011;25908;51.984;5.928;2023-02-18T06:30:51;9.90;;;7.22;;
39022;SDS011;25908;51.984;5.928;2023-02-18T06:33:16;8.88;;;6.80;;
39022;SDS011;25908;51.984;5.928;2023-02-18T06:35:50;10.00;;;7.15;;
39022;SDS011;25908;51.984;5.928;2023-02-18T06:38:17;9.98;;;6.45;;
39022;SDS011;25908;51.984;5.928;2023-02-18T06:40:45;8.80;;;5.80;;
39022;SDS011;25908;51.984;5.928;2023-02-18T06:43:11;9.10;;;6.43;;
39022;SDS011;25908;51.984;5.928;2023-02-18T06:45:37;8.70;;;6.40;;
39022;SDS011;25908;51.984;5.928;2023-02-18T06:48:03;12.32;;;6.63;;
39022;SDS011;25908;51.984;5.928;2023-02-18T06:50:29;10.13;;;6.93;;
39022;SDS011;25908;51.984;5.928;2023-02-18T06:52:54;10.55;;;7.10;;
39022;SDS011;25908;51.984;5.928;2023-02-18T06:55:20;11.75;;;6.93;;
39022;SDS011;25908;51.984;5.928;2023-02-18T06:57:45;12.48;;;7.55;;
39022;SDS011;25908;51.984;5.928;2023-02-18T07:00:11;10.65;;;7.00;;
39022;SDS011;25908;51.984;5.928;2023-02-18T07:02:37;10.13;;;6.93;;
39022;SDS011;25908;51.984;5.928;2023-02-18T07:05:03;10.13;;;6.72;;
39022;SDS011;25908;51.984;5.928;2023-02-18T07:07:29;8.68;;;5.57;;
39022;SDS011;25908;51.984;5.928;2023-02-18T07:09:54;8.20;;;5.43;;
39022;SDS011;25908;51.984;5.928;2023-02-18T07:12:20;8.05;;;5.13;;
39022;SDS011;25908;51.984;5.928;2023-02-18T07:14:46;9.10;;;5.88;;
39022;SDS011;25908;51.984;5.928;2023-02-18T07:17:11;8.50;;;5.75;;
39022;SDS011;25908;51.984;5.928;2023-02-18T07:19:38;8.20;;;5.68;;
39022;SDS011;25908;51.984;5.928;2023-02-18T07:22:03;10.57;;;6.00;;
39022;SDS011;25908;51.984;5.928;2023-02-18T07:24:29;10.13;;;6.82;;
39022;SDS011;25908;51.984;5.928;2023-02-18T07:26:54;10.73;;;7.25;;
39022;SDS011;25908;51.984;5.928;2023-02-18T07:29:20;12.23;;;7.78;;
39022;SDS011;25908;51.984;5.928;2023-02-18T07:31:45;11.45;;;7.65;;
39022;SDS011;25908;51.984;5.928;2023-02-18T07:34:11;13.98;;;8.00;;
39022;SDS011;25908;51.984;5.928;2023-02-18T07:36:36;12.43;;;8.60;;
39022;SDS011;25908;51.984;5.928;2023-02-18T07:39:02;13.35;;;8.70;;
39022;SDS011;25908;51.984;5.928;2023-02-18T07:41:28;11.73;;;7.00;;
39022;SDS011;25908;51.984;5.928;2023-02-18T07:43:53;11.38;;;7.43;;
39022;SDS011;25908;51.984;5.928;2023-02-18T07:46:19;11.48;;;6.40;;
39022;SDS011;25908;51.984;5.928;2023-02-18T07:48:44;11.43;;;7.80;;
39022;SDS011;25908;51.984;5.928;2023-02-18T07:51:10;14.55;;;7.40;;
39022;SDS011;25908;51.984;5.928;2023-02-18T07:53:37;10.77;;;7.03;;
39022;SDS011;25908;51.984;5.928;2023-02-18T07:56:03;12.27;;;6.80;;
39022;SDS011;25908;51.984;5.928;2023-02-18T07:58:31;11.70;;;6.63;;
39022;SDS011;25908;51.984;5.928;2023-02-18T08:00:59;14.90;;;7.72;;
39022;SDS011;25908;51.984;5.928;2023-02-18T08:03:29;14.30;;;6.90;;
39022;SDS011;25908;51.984;5.928;2023-02-18T08:05:55;17.50;;;7.00;;
39022;SDS011;25908;51.984;5.928;2023-02-18T08:08:23;16.17;;;6.97;;
39022;SDS011;25908;51.984;5.928;2023-02-18T08:10:50;16.48;;;7.13;;
39022;SDS011;25908;51.984;5.928;2023-02-18T08:13:17;15.85;;;6.38;;
39022;SDS011;25908;51.984;5.928;2023-02-18T08:15:43;16.40;;;6.13;;
39022;SDS011;25908;51.984;5.928;2023-02-18T08:18:18;17.95;;;6.03;;
39022;SDS011;25908;51.984;5.928;2023-02-18T08:20:45;20.02;;;6.07;;
39022;SDS011;25908;51.984;5.928;2023-02-18T08:23:12;20.08;;;4.82;;
39022;SDS011;25908;51.984;5.928;2023-02-18T08:25:39;13.60;;;4.80;;
39022;SDS011;25908;51.984;5.928;2023-02-18T08:28:05;16.05;;;5.72;;
39022;SDS011;25908;51.984;5.928;2023-02-18T08:30:30;17.05;;;4.75;;
39022;SDS011;25908;51.984;5.928;2023-02-18T08:32:56;15.32;;;4.80;;
39022;SDS011;25908;51.984;5.928;2023-02-18T08:35:22;15.27;;;4.72;;
39022;SDS011;25908;51.984;5.928;2023-02-18T08:37:48;19.38;;;4.45;;
39022;SDS011;25908;51.984;5.928;2023-02-18T08:40:13;15.65;;;4.90;;
39022;SDS011;25908;51.984;5.928;2023-02-18T08:42:39;15.48;;;5.32;;
39022;SDS011;25908;51.984;5.928;2023-02-18T08:45:05;17.83;;;5.63;;
39022;SDS011;25908;51.984;5.928;2023-02-18T08:47:32;15.57;;;5.53;;
39022;SDS011;25908;51.984;5.928;2023-02-18T08:49:57;14.45;;;5.68;;
39022;SDS011;25908;51.984;5.928;2023-02-18T08:52:23;21.35;;;5.47;;
39022;SDS011;25908;51.984;5.928;2023-02-18T08:54:49;17.73;;;5.38;;
39022;SDS011;25908;51.984;5.928;2023-02-18T08:57:14;19.85;;;6.00;;
39022;SDS011;25908;51.984;5.928;2023-02-18T08:59:40;17.65;;;6.30;;
39022;SDS011;25908;51.984;5.928;2023-02-18T09:02:05;21.35;;;5.95;;
39022;SDS011;25908;51.984;5.928;2023-02-18T09:04:31;18.33;;;5.15;;
39022;SDS011;25908;51.984;5.928;2023-02-18T09:06:57;16.20;;;5.50;;
39022;SDS011;25908;51.984;5.928;2023-02-18T09:09:22;10.70;;;4.53;;
39022;SDS011;25908;51.984;5.928;2023-02-18T09:11:48;16.40;;;4.47;;
39022;SDS011;25908;51.984;5.928;2023-02-18T09:14:14;12.80;;;4.28;;
39022;SDS011;25908;51.984;5.928;2023-02-18T09:16:40;15.52;;;4.63;;
39022;SDS011;25908;51.984;5.928;2023-02-18T09:19:06;15.55;;;3.67;;
39022;SDS011;25908;51.984;5.928;2023-02-18T09:21:32;14.77;;;3.28;;
39022;SDS011;25908;51.984;5.928;2023-02-18T09:23:58;16.63;;;2.97;;
39022;SDS011;25908;51.984;5.928;2023-02-18T09:26:24;9.35;;;2.72;;
39022;SDS011;25908;51.984;5.928;2023-02-18T09:28:51;14.48;;;3.00;;
39022;SDS011;25908;51.984;5.928;2023-02-18T09:31:19;10.65;;;3.15;;
39022;SDS011;25908;51.984;5.928;2023-02-18T09:33:48;9.95;;;2.53;;
39022;SDS011;25908;51.984;5.928;2023-02-18T09:36:24;13.13;;;3.10;;
39022;SDS011;25908;51.984;5.928;2023-02-18T09:38:50;16.23;;;4.00;;
39022;SDS011;25908;51.984;5.928;2023-02-18T09:44:10;16.80;;;4.22;;
39022;SDS011;25908;51.984;5.928;2023-02-18T09:46:45;14.45;;;4.70;;
39022;SDS011;25908;51.984;5.928;2023-02-18T09:49:34;16.73;;;4.38;;
39022;SDS011;25908;51.984;5.928;2023-02-18T09:52:10;19.85;;;4.38;;
39022;SDS011;25908;51.984;5.928;2023-02-18T09:54:47;17.63;;;4.03;;
39022;SDS011;25908;51.984;5.928;2023-02-18T09:57:38;15.05;;;4.35;;
39022;SDS011;25908;51.984;5.928;2023-02-18T10:00:06;17.77;;;3.88;;
39022;SDS011;25908;51.984;5.928;2023-02-18T10:02:42;15.65;;;3.10;;
39022;SDS011;25908;51.984;5.928;2023-02-18T10:05:22;15.98;;;3.65;;
39022;SDS011;25908;51.984;5.928;2023-02-18T10:07:51;16.45;;;3.53;;
39022;SDS011;25908;51.984;5.928;2023-02-18T10:10:20;19.88;;;4.13;;
39022;SDS011;25908;51.984;5.928;2023-02-18T10:12:59;17.80;;;5.22;;
39022;SDS011;25908;51.984;5.928;2023-02-18T10:15:27;13.57;;;4.70;;
39022;SDS011;25908;51.984;5.928;2023-02-18T10:17:57;17.77;;;4.13;;
39022;SDS011;25908;51.984;5.928;2023-02-18T10:20:25;16.52;;;6.45;;
39022;SDS011;25908;51.984;5.928;2023-02-18T10:22:54;13.68;;;3.42;;
39022;SDS011;25908;51.984;5.928;2023-02-18T10:25:23;19.38;;;5.30;;
39022;SDS011;25908;51.984;5.928;2023-02-18T10:27:51;13.00;;;3.40;;
39022;SDS011;25908;51.984;5.928;2023-02-18T10:30:22;20.85;;;5.63;;
39022;SDS011;25908;51.984;5.928;2023-02-18T10:32:52;13.77;;;5.47;;
39022;SDS011;25908;51.984;5.928;2023-02-18T10:40:54;12.57;;;3.00;;
39022;SDS011;25908;51.984;5.928;2023-02-18T10:51:07;21.83;;;7.85;;
39022;SDS011;25908;51.984;5.928;2023-02-18T10:53:40;17.80;;;5.53;;
39022;SDS011;25908;51.984;5.928;2023-02-18T10:56:08;11.00;;;3.42;;
39022;SDS011;25908;51.984;5.928;2023-02-18T10:58:57;14.00;;;3.85;;
39022;SDS011;25908;51.984;5.928;2023-02-18T11:01:43;17.92;;;4.18;;
39022;SDS011;25908;51.984;5.928;2023-02-18T11:04:16;14.65;;;3.90;;
39022;SDS011;25908;51.984;5.928;2023-02-18T11:06:44;18.80;;;3.85;;
39022;SDS011;25908;51.984;5.928;2023-02-18T11:09:25;15.95;;;4.05;;
39022;SDS011;25908;51.984;5.928;2023-02-18T11:11:57;17.20;;;4.97;;
39022;SDS011;25908;51.984;5.928;2023-02-18T11:14:48;19.02;;;4.78;;
39022;SDS011;25908;51.984;5.928;2023-02-18T11:17:27;21.13;;;4.80;;
39022;SDS011;25908;51.984;5.928;2023-02-18T11:19:56;15.35;;;4.15;;
39022;SDS011;25908;51.984;5.928;2023-02-18T11:22:25;16.88;;;4.65;;
39022;SDS011;25908;51.984;5.928;2023-02-18T11:24:54;20.15;;;4.28;;
39022;SDS011;25908;51.984;5.928;2023-02-18T11:27:26;17.33;;;4.90;;
39022;SDS011;25908;51.984;5.928;2023-02-18T11:30:06;17.58;;;4.45;;
39022;SDS011;25908;51.984;5.928;2023-02-18T11:32:41;16.83;;;4.28;;
39022;SDS011;25908;51.984;5.928;2023-02-18T11:35:15;16.08;;;4.05;;
39022;SDS011;25908;51.984;5.928;2023-02-18T11:37:46;14.48;;;4.15;;
39022;SDS011;25908;51.984;5.928;2023-02-18T11:45:36;14.77;;;4.80;;
39022;SDS011;25908;51.984;5.928;2023-02-18T11:50:40;14.90;;;5.10;;
39022;SDS011;25908;51.984;5.928;2023-02-18T11:53:25;18.67;;;4.40;;
39022;SDS011;25908;51.984;5.928;2023-02-18T11:55:55;16.38;;;5.47;;
39022;SDS011;25908;51.984;5.928;2023-02-18T11:58:40;15.50;;;5.35;;
39022;SDS011;25908;51.984;5.928;2023-02-18T12:01:26;22.02;;;5.03;;
39022;SDS011;25908;51.984;5.928;2023-02-18T12:04:14;21.17;;;5.40;;
39022;SDS011;25908;51.984;5.928;2023-02-18T12:09:17;19.42;;;5.38;;
39022;SDS011;25908;51.984;5.928;2023-02-18T12:11:54;21.83;;;6.55;;
39022;SDS011;25908;51.984;5.928;2023-02-18T12:14:23;21.98;;;6.47;;
39022;SDS011;25908;51.984;5.928;2023-02-18T12:24:56;15.18;;;6.55;;
39022;SDS011;25908;51.984;5.928;2023-02-18T12:27:55;17.13;;;6.18;;
39022;SDS011;25908;51.984;5.928;2023-02-18T12:43:50;13.40;;;6.93;;
39022;SDS011;25908;51.984;5.928;2023-02-18T12:46:34;24.88;;;10.40;;
39022;SDS011;25908;51.984;5.928;2023-02-18T12:57:06;19.08;;;7.45;;
39022;SDS011;25908;51.984;5.928;2023-02-18T13:02:27;20.02;;;6.97;;
39022;SDS011;25908;51.984;5.928;2023-02-18T13:05:29;16.30;;;6.80;;
39022;SDS011;25908;51.984;5.928;2023-02-18T13:08:05;17.20;;;6.57;;
39022;SDS011;25908;51.984;5.928;2023-02-18T13:13:38;25.60;;;7.05;;
39022;SDS011;25908;51.984;5.928;2023-02-18T13:16:09;20.40;;;6.22;;
39022;SDS011;25908;51.984;5.928;2023-02-18T13:18:38;21.50;;;7.70;;
39022;SDS011;25908;51.984;5.928;2023-02-18T13:21:11;20.08;;;6.28;;
39022;SDS011;25908;51.984;5.928;2023-02-18T13:23:42;18.85;;;6.35;;
39022;SDS011;25908;51.984;5.928;2023-02-18T13:26:14;17.25;;;6.20;;
39022;SDS011;25908;51.984;5.928;2023-02-18T13:31:26;19.52;;;6.80;;
39022;SDS011;25908;51.984;5.928;2023-02-18T13:39:23;18.23;;;6.57;;
39022;SDS011;25908;51.984;5.928;2023-02-18T13:41:50;17.48;;;5.72;;
39022;SDS011;25908;51.984;5.928;2023-02-18T13:45:00;13.57;;;5.82;;
39022;SDS011;25908;51.984;5.928;2023-02-18T13:52:50;20.23;;;6.45;;
39022;SDS011;25908;51.984;5.928;2023-02-18T13:55:24;20.98;;;5.75;;
39022;SDS011;25908;51.984;5.928;2023-02-18T13:57:58;15.65;;;5.88;;
39022;SDS011;25908;51.984;5.928;2023-02-18T14:00:25;16.50;;;6.70;;
39022;SDS011;25908;51.984;5.928;2023-02-18T14:03:18;19.83;;;7.90;;
39022;SDS011;25908;51.984;5.928;2023-02-18T14:06:17;15.63;;;5.55;;
39022;SDS011;25908;51.984;5.928;2023-02-18T14:09:00;23.38;;;6.85;;
39022;SDS011;25908;51.984;5.928;2023-02-18T14:11:39;18.88;;;7.05;;
39022;SDS011;25908;51.984;5.928;2023-02-18T14:20:29;17.40;;;6.18;;
39022;SDS011;25908;51.984;5.928;2023-02-18T14:22:33;18.67;;;6.38;;
39022;SDS011;25908;51.984;5.928;2023-02-18T14:27:34;22.55;;;8.15;;
39022;SDS011;25908;51.984;5.928;2023-02-18T14:30:05;16.17;;;6.13;;
39022;SDS011;25908;51.984;5.928;2023-02-18T14:32:41;19.42;;;6.65;;
39022;SDS011;25908;51.984;5.928;2023-02-18T14:51:47;19.55;;;8.45;;
39022;SDS011;25908;51.984;5.928;2023-02-18T14:54:15;18.17;;;8.57;;
39022;SDS011;25908;51.984;5.928;2023-02-18T14:59:18;22.50;;;7.10;;
39022;SDS011;25908;51.984;5.928;2023-02-18T15:01:45;18.85;;;6.43;;
39022;SDS011;25908;51.984;5.928;2023-02-18T15:04:12;17.42;;;6.72;;
39022;SDS011;25908;51.984;5.928;2023-02-18T15:06:40;18.85;;;7.25;;
39022;SDS011;25908;51.984;5.928;2023-02-18T15:09:17;20.38;;;8.25;;
39022;SDS011;25908;51.984;5.928;2023-02-18T15:11:46;16.02;;;6.05;;
39022;SDS011;25908;51.984;5.928;2023-02-18T15:14:34;20.45;;;6.57;;
39022;SDS011;25908;51.984;5.928;2023-02-18T15:17:02;20.20;;;7.35;;
39022;SDS011;25908;51.984;5.928;2023-02-18T15:19:33;14.88;;;7.18;;
39022;SDS011;25908;51.984;5.928;2023-02-18T15:22:03;20.10;;;7.85;;
39022;SDS011;25908;51.984;5.928;2023-02-18T15:26:55;17.55;;;7.22;;
39022;SDS011;25908;51.984;5.928;2023-02-18T15:29:25;18.50;;;7.85;;
39022;SDS011;25908;51.984;5.928;2023-02-18T15:31:53;18.02;;;7.47;;
39022;SDS011;25908;51.984;5.928;2023-02-18T15:36:50;17.35;;;8.20;;
39022;SDS011;25908;51.984;5.928;2023-02-18T15:39:16;20.92;;;8.02;;
39022;SDS011;25908;51.984;5.928;2023-02-18T15:41:42;17.70;;;7.65;;
39022;SDS011;25908;51.984;5.928;2023-02-18T15:44:08;18.42;;;8.85;;
39022;SDS011;25908;51.984;5.928;2023-02-18T15:46:44;25.38;;;11.20;;
39022;SDS011;25908;51.984;5.928;2023-02-18T15:49:10;17.35;;;7.93;;
39022;SDS011;25908;51.984;5.928;2023-02-18T15:51:44;20.92;;;8.43;;
39022;SDS011;25908;51.984;5.928;2023-02-18T15:54:14;16.63;;;8.63;;
39022;SDS011;25908;51.984;5.928;2023-02-18T15:56:44;20.77;;;8.15;;
39022;SDS011;25908;51.984;5.928;2023-02-18T15:59:20;24.10;;;7.45;;
39022;SDS011;25908;51.984;5.928;2023-02-18T16:01:54;25.30;;;8.88;;
39022;SDS011;25908;51.984;5.928;2023-02-18T16:04:23;20.05;;;7.72;;
39022;SDS011;25908;51.984;5.928;2023-02-18T16:06:53;20.52;;;8.30;;
39022;SDS011;25908;51.984;5.928;2023-02-18T16:09:22;15.90;;;8.63;;
39022;SDS011;25908;51.984;5.928;2023-02-18T16:11:58;16.63;;;8.95;;
39022;SDS011;25908;51.984;5.928;2023-02-18T16:14:28;26.77;;;9.10;;
39022;SDS011;25908;51.984;5.928;2023-02-18T16:17:05;20.83;;;9.00;;
39022;SDS011;25908;51.984;5.928;2023-02-18T16:19:48;18.85;;;7.40;;
39022;SDS011;25908;51.984;5.928;2023-02-18T16:22:22;20.85;;;8.60;;
39022;SDS011;25908;51.984;5.928;2023-02-18T16:25:17;19.67;;;8.15;;
39022;SDS011;25908;51.984;5.928;2023-02-18T16:30:25;20.05;;;8.43;;
39022;SDS011;25908;51.984;5.928;2023-02-18T16:32:53;16.35;;;7.75;;
39022;SDS011;25908;51.984;5.928;2023-02-18T16:35:19;25.00;;;8.15;;
39022;SDS011;25908;51.984;5.928;2023-02-18T16:37:46;19.33;;;8.55;;
39022;SDS011;25908;51.984;5.928;2023-02-18T16:42:54;16.92;;;8.30;;
39022;SDS011;25908;51.984;5.928;2023-02-18T16:45:23;13.95;;;8.90;;
39022;SDS011;25908;51.984;5.928;2023-02-18T16:48:01;22.77;;;9.05;;
39022;SDS011;25908;51.984;5.928;2023-02-18T16:50:27;20.33;;;8.30;;
39022;SDS011;25908;51.984;5.928;2023-02-18T16:52:55;19.23;;;8.90;;
39022;SDS011;25908;51.984;5.928;2023-02-18T16:55:22;15.65;;;8.13;;
39022;SDS011;25908;51.984;5.928;2023-02-18T16:57:50;18.80;;;10.15;;
39022;SDS011;25908;51.984;5.928;2023-02-18T17:00:16;18.50;;;9.55;;
39022;SDS011;25908;51.984;5.928;2023-02-18T17:02:43;21.08;;;8.82;;
39022;SDS011;25908;51.984;5.928;2023-02-18T17:05:16;18.00;;;9.95;;
39022;SDS011;25908;51.984;5.928;2023-02-18T17:07:43;26.23;;;10.65;;
39022;SDS011;25908;51.984;5.928;2023-02-18T17:10:08;24.25;;;9.25;;